createdAt,value
2022-10-11T00:01:09.357Z,6.99
2022-10-11T00:03:38.355Z,6.97
2022-10-11T00:06:09.242Z,6.94
2022-10-11T00:08:38.173Z,6.95
2022-10-11T00:11:08.749Z,6.94
2022-10-11T00:13:37.657Z,6.95
2022-10-11T00:16:11.288Z,6.95
2022-10-11T00:18:40.621Z,6.96
2022-10-11T00:21:10.878Z,6.98
2022-10-11T00:23:40.266Z,6.97
2022-10-11T00:26:10.423Z,6.94
2022-10-11T00:28:39.374Z,6.96
2022-10-11T00:31:11.164Z,6.94
2022-10-11T00:33:39.773Z,6.94
2022-10-11T00:36:09.757Z,6.92
2022-10-11T00:38:38.844Z,6.91
2022-10-11T00:41:08.146Z,6.91
2022-10-11T00:43:37.413Z,6.89
2022-10-11T00:46:26.289Z,6.88
2022-10-11T00:48:58.685Z,6.85
2022-10-11T00:51:37.774Z,6.82
2022-10-11T00:54:09.073Z,6.82
2022-10-11T00:56:39.894Z,6.79
2022-10-11T00:59:13.836Z,6.77
2022-10-11T01:01:44.133Z,6.72
2022-10-11T01:04:12.863Z,6.71
2022-10-11T01:06:42.704Z,6.65
2022-10-11T01:09:12.368Z,6.64
2022-10-11T01:11:43.802Z,6.61
2022-10-11T01:14:34.389Z,6.53
2022-10-11T01:17:15.069Z,6.50
2022-10-11T01:19:56.284Z,6.49
2022-10-11T01:22:50.208Z,6.47
2022-10-11T01:25:28.220Z,6.44
2022-10-11T01:28:27.924Z,6.39
2022-10-11T01:31:06.142Z,6.35
2022-10-11T01:33:40.222Z,6.31
2022-10-11T01:36:17.931Z,6.28
2022-10-11T01:38:52.088Z,6.22
2022-10-11T01:41:26.878Z,6.21
2022-10-11T01:44:00.177Z,6.20
2022-10-11T01:46:32.161Z,6.17
2022-10-11T01:49:03.846Z,6.16
2022-10-11T01:51:35.874Z,6.14
2022-10-11T01:54:56.945Z,6.13
2022-10-11T01:57:52.620Z,6.07
2022-10-11T02:00:24.003Z,6.02
2022-10-11T02:03:09.796Z,6.04
2022-10-11T02:05:46.743Z,6.01
2022-10-11T02:08:21.999Z,5.99
2022-10-11T02:10:55.932Z,5.97
2022-10-11T02:13:31.656Z,5.91
2022-10-11T02:16:03.730Z,5.88
2022-10-11T02:18:38.584Z,5.85
2022-10-11T02:21:10.310Z,5.83
2022-10-11T02:23:44.174Z,5.82
2022-10-11T02:26:13.895Z,5.82
2022-10-11T02:28:45.497Z,5.81
2022-10-11T02:31:17.937Z,5.77
2022-10-11T02:33:56.964Z,5.77
2022-10-11T02:36:33.299Z,5.76
2022-10-11T02:39:08.851Z,5.76
2022-10-11T02:41:40.626Z,5.78
2022-10-11T02:44:13.881Z,5.78
2022-10-11T02:46:45.328Z,5.78
2022-10-11T02:49:16.873Z,5.79
2022-10-11T02:51:45.790Z,5.84
2022-10-11T02:54:14.593Z,5.90
2022-10-11T02:56:43.218Z,5.96
2022-10-11T02:59:11.873Z,6.05
2022-10-11T03:01:40.543Z,6.14
2022-10-11T03:04:09.559Z,6.23
2022-10-11T03:06:39.527Z,6.33
2022-10-11T03:09:08.287Z,6.36
2022-10-11T03:11:36.950Z,6.46
2022-10-11T03:14:05.667Z,6.52
2022-10-11T03:16:34.340Z,6.56
2022-10-11T03:19:03.447Z,6.63
2022-10-11T03:21:32.231Z,6.69
2022-10-11T03:24:02.078Z,6.71
2022-10-11T03:26:30.990Z,6.73
2022-10-11T03:28:59.610Z,6.73
2022-10-11T03:31:28.560Z,6.74
2022-10-11T03:33:57.134Z,6.75
2022-10-11T03:36:28.658Z,6.76
2022-10-11T03:38:57.341Z,6.74
2022-10-11T03:41:27.308Z,6.74
2022-10-11T03:43:55.922Z,6.74
2022-10-11T03:46:24.530Z,6.75
2022-10-11T03:48:53.093Z,6.78
2022-10-11T03:51:21.761Z,6.81
2022-10-11T03:53:50.454Z,6.83
2022-10-11T03:56:18.947Z,6.85
2022-10-11T03:58:49.016Z,6.85
2022-10-11T04:01:19.533Z,6.89
2022-10-11T04:03:48.480Z,6.92
2022-10-11T04:06:17.194Z,6.94
2022-10-11T04:08:45.650Z,6.94
2022-10-11T04:11:14.374Z,6.96
2022-10-11T04:13:43.126Z,6.99
2022-10-11T04:16:13.968Z,7.02
2022-10-11T04:18:43.323Z,7.07
2022-10-11T04:21:14.449Z,7.12
2022-10-11T04:23:43.314Z,7.14
2022-10-11T04:26:12.037Z,7.15
2022-10-11T04:28:40.750Z,7.20
2022-10-11T04:31:12.666Z,7.21
2022-10-11T04:33:41.391Z,7.25
2022-10-11T04:36:10.211Z,7.28
2022-10-11T04:38:38.817Z,7.32
2022-10-11T04:41:08.721Z,7.35
2022-10-11T04:43:38.012Z,7.36
2022-10-11T04:46:07.474Z,7.35
2022-10-11T04:48:37.833Z,7.36
2022-10-11T04:51:07.451Z,7.39
2022-10-11T04:53:36.552Z,7.45
2022-10-11T04:56:08.528Z,7.48
2022-10-11T04:58:37.986Z,7.49
2022-10-11T05:01:06.781Z,7.53
2022-10-11T05:03:40.780Z,7.53
2022-10-11T05:06:10.097Z,7.56
2022-10-11T05:08:41.869Z,7.63
2022-10-11T05:11:17.137Z,7.70
2022-10-11T05:13:46.342Z,7.74
2022-10-11T05:16:18.774Z,7.79
2022-10-11T05:18:48.734Z,7.84
2022-10-11T05:21:20.044Z,7.86
2022-10-11T05:23:50.702Z,7.89
2022-10-11T05:26:20.862Z,7.92
2022-10-11T05:28:49.827Z,7.97
2022-10-11T05:31:18.708Z,8.03
2022-10-11T05:33:49.573Z,8.07
2022-10-11T05:36:18.430Z,8.17
2022-10-11T05:38:47.092Z,8.24
2022-10-11T05:41:16.728Z,8.30
2022-10-11T05:43:46.299Z,8.38
2022-10-11T05:46:15.006Z,8.43
2022-10-11T05:48:43.876Z,8.50
2022-10-11T05:51:14.464Z,8.56
2022-10-11T05:53:43.057Z,8.63
2022-10-11T05:56:22.008Z,8.72
2022-10-11T05:58:51.129Z,8.85
2022-10-11T06:01:21.752Z,8.98
2022-10-11T06:03:50.553Z,9.10
2022-10-11T06:06:21.649Z,9.20
2022-10-11T06:08:50.679Z,9.29
2022-10-11T06:11:21.846Z,9.35
2022-10-11T06:13:55.486Z,9.42
2022-10-11T06:16:27.064Z,9.44
2022-10-11T06:18:56.499Z,9.46
2022-10-11T06:21:26.896Z,9.54
2022-10-11T06:24:01.123Z,9.60
2022-10-11T06:26:30.516Z,9.67
2022-10-11T06:28:59.307Z,9.80
2022-10-11T06:31:28.073Z,9.90
2022-10-11T06:33:57.341Z,10.04
2022-10-11T06:36:28.108Z,10.19
2022-10-11T06:38:57.319Z,10.37
2022-10-11T06:41:27.489Z,10.50
2022-10-11T06:43:57.517Z,10.61
2022-10-11T06:46:28.377Z,10.71
2022-10-11T06:48:57.864Z,10.79
2022-10-11T06:51:30.374Z,10.87
2022-10-11T06:54:02.019Z,10.91
2022-10-11T06:56:31.812Z,10.92
2022-10-11T06:59:01.577Z,10.91
2022-10-11T07:01:30.251Z,10.94
2022-10-11T07:04:00.871Z,11.00
2022-10-11T07:06:32.004Z,11.07
2022-10-11T07:09:02.049Z,11.13
2022-10-11T07:11:31.055Z,11.16
2022-10-11T07:14:01.223Z,11.19
2022-10-11T07:16:30.125Z,11.23
2022-10-11T07:19:01.216Z,11.27
2022-10-11T07:21:33.563Z,11.36
2022-10-11T07:24:02.753Z,11.41
2022-10-11T07:26:38.170Z,11.52
2022-10-11T07:29:08.425Z,11.63
2022-10-11T07:31:39.108Z,11.78
2022-10-11T07:34:07.494Z,11.95
2022-10-11T07:36:37.524Z,12.14
2022-10-11T07:39:08.500Z,12.31
2022-10-11T07:41:43.145Z,12.43
2022-10-11T07:44:14.520Z,12.59
2022-10-11T07:46:43.145Z,12.73
2022-10-11T07:49:11.889Z,12.89
2022-10-11T07:51:41.772Z,13.06
2022-10-11T07:54:11.403Z,13.18
2022-10-11T07:56:40.604Z,13.34
2022-10-11T07:59:09.113Z,13.50
2022-10-11T08:01:37.875Z,13.76
2022-10-11T08:04:06.867Z,14.47
2022-10-11T08:06:36.733Z,15.01
2022-10-11T08:09:06.949Z,15.45
2022-10-11T08:11:37.665Z,16.20
2022-10-11T08:14:11.459Z,16.88
2022-10-11T08:16:41.074Z,17.32
2022-10-11T08:19:09.738Z,17.72
2022-10-11T08:21:38.478Z,17.53
2022-10-11T08:24:09.450Z,17.15
2022-10-11T08:26:38.077Z,16.87
2022-10-11T08:29:07.368Z,16.78
2022-10-11T08:31:36.165Z,16.76
2022-10-11T08:34:04.947Z,16.81
2022-10-11T08:36:33.764Z,17.08
2022-10-11T08:39:02.976Z,17.24
2022-10-11T08:41:40.745Z,18.02
2022-10-11T08:44:22.235Z,18.70
2022-10-11T08:47:00.540Z,19.01
2022-10-11T08:49:34.646Z,19.01
2022-10-11T08:52:07.300Z,18.49
2022-10-11T08:54:49.598Z,18.23
2022-10-11T08:57:20.866Z,17.71
2022-10-11T08:59:52.997Z,17.24
2022-10-11T09:02:38.952Z,16.89
2022-10-11T09:05:18.079Z,16.57
2022-10-11T09:07:57.841Z,16.33
2022-10-11T09:10:59.188Z,16.11
2022-10-11T09:13:46.011Z,15.83
2022-10-11T09:16:26.685Z,15.68
2022-10-11T09:19:16.938Z,15.56
2022-10-11T09:21:53.602Z,15.41
2022-10-11T09:24:48.615Z,15.31
2022-10-11T09:27:37.864Z,15.33
2022-10-11T09:30:16.586Z,16.31
2022-10-11T09:32:49.482Z,17.17
2022-10-11T09:35:20.534Z,16.69
2022-10-11T09:37:59.255Z,16.11
2022-10-11T09:40:40.559Z,16.47
2022-10-11T09:43:10.569Z,17.73
2022-10-11T09:45:49.209Z,19.20
2022-10-11T09:48:22.152Z,20.69
2022-10-11T09:50:53.205Z,21.31
2022-10-11T09:53:23.054Z,20.80
2022-10-11T09:55:55.369Z,20.11
2022-10-11T09:58:30.762Z,19.03
2022-10-11T10:01:07.882Z,18.28
2022-10-11T10:03:38.629Z,17.51
2022-10-11T10:06:10.436Z,16.94
2022-10-11T10:08:39.043Z,16.49
2022-10-11T10:11:09.735Z,16.13
2022-10-11T10:13:44.829Z,15.75
2022-10-11T10:16:27.279Z,15.48
2022-10-11T10:18:58.453Z,15.36
2022-10-11T10:21:29.901Z,15.28
2022-10-11T10:24:00.326Z,15.21
2022-10-11T10:26:28.942Z,15.24
2022-10-11T10:29:05.090Z,15.27
2022-10-11T10:32:02.053Z,15.20
2022-10-11T10:34:31.924Z,15.08
2022-10-11T10:37:04.083Z,14.94
2022-10-11T10:39:40.861Z,14.81
2022-10-11T10:42:16.396Z,14.69
2022-10-11T10:44:48.732Z,14.60
2022-10-11T10:47:29.841Z,14.53
2022-10-11T10:50:03.935Z,14.49
2022-10-11T10:52:50.511Z,14.49
2022-10-11T10:55:26.212Z,14.59
2022-10-11T10:58:05.825Z,14.92
2022-10-11T11:00:43.608Z,15.58
2022-10-11T11:03:22.812Z,17.04
2022-10-11T11:06:02.499Z,17.56
2022-10-11T11:08:51.027Z,18.49
2022-10-11T11:11:42.479Z,18.16
2022-10-11T11:14:24.457Z,20.50
2022-10-11T11:17:01.293Z,21.16
2022-10-11T11:19:42.102Z,21.40
2022-10-11T11:22:19.020Z,23.56
2022-10-11T11:24:59.953Z,25.06
2022-10-11T11:27:45.435Z,24.54
2022-10-11T11:30:20.595Z,25.28
2022-10-11T11:32:59.009Z,24.71
2022-10-11T11:35:35.782Z,23.40
2022-10-11T11:38:12.744Z,22.87
2022-10-11T11:40:44.233Z,24.36
2022-10-11T11:43:22.231Z,25.33
2022-10-11T11:45:56.672Z,26.19
2022-10-11T11:48:26.857Z,27.08
2022-10-11T11:51:03.058Z,27.49
2022-10-11T11:53:54.882Z,28.07
2022-10-11T11:56:30.862Z,28.43
2022-10-11T11:59:08.242Z,28.66
2022-10-11T12:01:44.318Z,28.95
2022-10-11T12:04:27.025Z,28.99
2022-10-11T12:07:17.853Z,28.84
2022-10-11T12:09:53.075Z,26.03
2022-10-11T12:12:31.733Z,22.77
2022-10-11T12:15:13.395Z,20.51
2022-10-11T12:18:04.599Z,21.25
2022-10-11T12:20:37.231Z,23.52
2022-10-11T12:23:40.769Z,25.31
2022-10-11T12:26:37.804Z,26.42
2022-10-11T12:29:28.838Z,26.64
2022-10-11T12:32:27.751Z,26.70
2022-10-11T12:35:29.794Z,26.70
2022-10-11T12:38:15.747Z,26.93
2022-10-11T12:40:47.374Z,27.22
2022-10-11T12:43:31.812Z,27.60
2022-10-11T12:46:33.406Z,27.47
2022-10-11T12:49:15.809Z,26.26
2022-10-11T12:51:54.530Z,23.33
2022-10-11T12:54:47.038Z,20.72
2022-10-11T12:57:46.492Z,19.09
2022-10-11T13:00:23.839Z,20.46
2022-10-11T13:02:53.109Z,21.11
2022-10-11T13:05:27.316Z,21.50
2022-10-11T13:07:58.896Z,23.31
2022-10-11T13:10:38.414Z,24.86
2022-10-11T13:13:11.238Z,25.90
2022-10-11T13:15:43.539Z,26.46
2022-10-11T13:18:15.762Z,26.79
2022-10-11T13:20:45.230Z,26.75
2022-10-11T13:23:23.536Z,24.89
2022-10-11T13:25:54.820Z,23.38
2022-10-11T13:28:24.722Z,22.24
2022-10-11T13:30:56.357Z,23.49
2022-10-11T13:33:32.234Z,24.63
2022-10-11T13:36:02.102Z,25.49
2022-10-11T13:38:33.096Z,26.01
2022-10-11T13:41:06.584Z,26.19
2022-10-11T13:43:35.673Z,26.24
2022-10-11T13:46:06.217Z,26.22
2022-10-11T13:48:41.502Z,25.83
2022-10-11T13:51:17.089Z,24.59
2022-10-11T13:53:59.764Z,22.47
2022-10-11T13:56:32.918Z,20.92
2022-10-11T13:59:02.091Z,19.79
2022-10-11T14:01:39.744Z,19.18
2022-10-11T14:04:10.224Z,19.53
2022-10-11T14:06:45.489Z,20.64
2022-10-11T14:09:23.590Z,20.73
2022-10-11T14:11:53.830Z,20.14
2022-10-11T14:14:42.194Z,20.41
2022-10-11T14:17:17.381Z,20.68
2022-10-11T14:19:47.492Z,19.93
2022-10-11T14:22:17.802Z,18.76
2022-10-11T14:24:49.200Z,17.78
2022-10-11T14:27:24.128Z,17.16
2022-10-11T14:30:20.291Z,16.69
2022-10-11T14:32:42.502Z,16.25
2022-10-11T14:35:16.870Z,16.02
2022-10-11T14:37:46.194Z,15.87
2022-10-11T14:40:17.928Z,15.72
2022-10-11T14:42:47.621Z,15.58
2022-10-11T14:45:16.312Z,15.51
2022-10-11T14:47:45.724Z,15.48
2022-10-11T14:50:36.615Z,15.46
2022-10-11T14:53:05.959Z,15.42
2022-10-11T14:55:35.763Z,15.36
2022-10-11T14:58:07.419Z,15.30
2022-10-11T15:00:36.818Z,15.23
2022-10-11T15:03:07.327Z,15.09
2022-10-11T15:05:36.467Z,14.95
2022-10-11T15:08:06.464Z,14.80
2022-10-11T15:10:38.317Z,14.68
2022-10-11T15:13:08.670Z,14.55
2022-10-11T15:15:41.061Z,14.49
2022-10-11T15:18:13.535Z,14.36
2022-10-11T15:20:43.895Z,14.21
2022-10-11T15:23:13.114Z,14.15
2022-10-11T15:25:43.099Z,14.03
2022-10-11T15:28:21.942Z,13.92
2022-10-11T15:30:50.630Z,13.79
2022-10-11T15:33:19.302Z,13.63
2022-10-11T15:35:49.838Z,13.48
2022-10-11T15:38:20.503Z,13.34
2022-10-11T15:40:51.487Z,13.20
2022-10-11T15:43:24.703Z,13.08
2022-10-11T15:45:53.464Z,12.91
2022-10-11T15:48:26.447Z,12.81
2022-10-11T15:50:55.688Z,12.70
2022-10-11T15:53:26.374Z,12.58
2022-10-11T15:55:57.910Z,12.44
2022-10-11T15:58:30.337Z,12.27
2022-10-11T16:01:02.757Z,12.10
2022-10-11T16:03:32.038Z,11.95
2022-10-11T16:06:05.204Z,11.81
2022-10-11T16:08:35.265Z,11.67
2022-10-11T16:11:04.348Z,11.53
2022-10-11T16:13:34.709Z,11.40
2022-10-11T16:16:04.133Z,11.26
2022-10-11T16:18:35.666Z,11.14
2022-10-11T16:21:07.335Z,10.97
2022-10-11T16:23:36.824Z,10.85
2022-10-11T16:26:09.381Z,10.77
2022-10-11T16:28:42.170Z,10.70
2022-10-11T16:31:11.892Z,10.64
2022-10-11T16:33:46.110Z,10.57
2022-10-11T16:36:38.926Z,10.50
2022-10-11T16:39:10.567Z,10.43
2022-10-11T16:41:39.500Z,10.38
2022-10-11T16:44:12.761Z,10.31
2022-10-11T16:46:41.436Z,10.25
2022-10-11T16:49:10.183Z,10.17
2022-10-11T16:51:41.569Z,10.09
2022-10-11T16:54:10.570Z,10.09
2022-10-11T16:56:40.174Z,10.06
2022-10-11T16:59:10.456Z,10.03
2022-10-11T17:01:39.414Z,10.02
2022-10-11T17:04:08.163Z,9.98
2022-10-11T17:06:36.829Z,9.99
2022-10-11T17:09:06.909Z,9.93
2022-10-11T17:11:35.624Z,9.93
2022-10-11T17:14:06.227Z,9.90
2022-10-11T17:16:36.806Z,9.87
2022-10-11T17:19:06.018Z,9.82
2022-10-11T17:21:34.636Z,9.72
2022-10-11T17:24:03.771Z,9.69
2022-10-11T17:26:33.369Z,9.63
2022-10-11T17:29:03.651Z,9.62
2022-10-11T17:31:32.549Z,9.61
2022-10-11T17:34:02.557Z,9.54
2022-10-11T17:36:34.899Z,9.44
2022-10-11T17:39:06.624Z,9.23
2022-10-11T17:41:35.704Z,9.19
2022-10-11T17:44:05.532Z,9.08
2022-10-11T17:46:34.021Z,9.00
2022-10-11T17:49:08.435Z,8.94
2022-10-11T17:51:38.584Z,8.89
2022-10-11T17:54:12.411Z,8.85
2022-10-11T17:56:42.640Z,8.82
2022-10-11T17:59:17.013Z,8.84
2022-10-11T18:01:47.183Z,8.84
2022-10-11T18:04:17.905Z,8.81
2022-10-11T18:06:47.996Z,8.76
2022-10-11T18:09:19.572Z,8.71
2022-10-11T18:11:48.685Z,8.68
2022-10-11T18:14:17.622Z,8.68
2022-10-11T18:16:46.646Z,8.68
2022-10-11T18:19:17.842Z,8.67
2022-10-11T18:21:46.614Z,8.64
2022-10-11T18:24:17.076Z,8.61
2022-10-11T18:26:46.690Z,8.58
2022-10-11T18:29:15.507Z,8.53
2022-10-11T18:31:44.539Z,8.47
2022-10-11T18:34:14.370Z,8.37
2022-10-11T18:36:44.565Z,8.27
2022-10-11T18:39:16.521Z,8.14
2022-10-11T18:41:45.537Z,8.02
2022-10-11T18:44:16.250Z,7.95
2022-10-11T18:46:45.024Z,7.87
2022-10-11T18:49:14.080Z,7.83
2022-10-11T18:51:44.299Z,7.80
2022-10-11T18:54:16.938Z,7.75
2022-10-11T18:56:50.883Z,7.64
2022-10-11T18:59:20.916Z,7.57
2022-10-11T19:01:52.322Z,7.52
2022-10-11T19:04:21.298Z,7.43
2022-10-11T19:06:52.795Z,7.35
2022-10-11T19:09:23.541Z,7.29
2022-10-11T19:11:53.078Z,7.19
2022-10-11T19:14:25.850Z,7.09
2022-10-11T19:16:55.642Z,7.00
2022-10-11T19:19:27.206Z,6.90
2022-10-11T19:21:58.067Z,6.82
2022-10-11T19:24:29.179Z,6.74
2022-10-11T19:27:02.354Z,6.65
2022-10-11T19:29:32.558Z,6.52
2022-10-11T19:32:03.868Z,6.39
2022-10-11T19:34:32.998Z,6.29
2022-10-11T19:37:04.231Z,6.19
2022-10-11T19:39:33.138Z,6.14
2022-10-11T19:42:01.978Z,6.11
2022-10-11T19:44:34.437Z,6.08
2022-10-11T19:47:06.326Z,6.05
2022-10-11T19:49:35.350Z,6.05
2022-10-11T19:52:05.468Z,6.03
2022-10-11T19:54:34.192Z,6.05
2022-10-11T19:57:02.846Z,6.06
2022-10-11T19:59:31.450Z,6.02
2022-10-11T20:02:00.807Z,6.02
2022-10-11T20:07:19.854Z,5.94
2022-10-11T20:09:48.783Z,5.87
2022-10-11T20:12:17.515Z,5.79
2022-10-11T20:14:46.238Z,5.74
2022-10-11T20:17:15.919Z,5.69
2022-10-11T20:19:44.604Z,5.66
2022-10-11T20:22:13.380Z,5.66
2022-10-11T20:24:43.718Z,5.65
2022-10-11T20:27:12.730Z,5.64
2022-10-11T20:29:41.186Z,5.65
2022-10-11T20:32:09.782Z,5.68
2022-10-11T20:34:39.727Z,5.69
2022-10-11T20:37:08.446Z,5.68
2022-10-11T20:39:38.152Z,5.63
2022-10-11T20:42:08.205Z,5.59
2022-10-11T20:44:37.340Z,5.53
2022-10-11T20:47:06.521Z,5.48
2022-10-11T20:49:35.927Z,5.38
2022-10-11T20:52:04.742Z,5.27
2022-10-11T20:54:34.899Z,5.18
2022-10-11T20:57:03.889Z,5.12
2022-10-11T20:59:34.363Z,5.09
2022-10-11T21:02:03.306Z,5.04
2022-10-11T21:04:32.870Z,5.02
2022-10-11T21:07:01.558Z,4.99
2022-10-11T21:09:30.319Z,4.95
2022-10-11T21:11:59.113Z,4.89
2022-10-11T21:14:28.327Z,4.86
2022-10-11T21:16:58.838Z,4.80
2022-10-11T21:19:27.804Z,4.80
2022-10-11T21:21:56.839Z,4.86
2022-10-11T21:24:25.777Z,4.87
2022-10-11T21:26:59.588Z,4.86
2022-10-11T21:29:29.335Z,4.86
2022-10-11T21:31:59.695Z,4.91
2022-10-11T21:34:28.762Z,4.92
2022-10-11T21:36:57.325Z,4.93
2022-10-11T21:39:26.419Z,4.93
2022-10-11T21:41:55.438Z,4.96
2022-10-11T21:44:24.274Z,4.93
2022-10-11T21:47:08.445Z,4.88
2022-10-11T21:49:41.517Z,4.82
2022-10-11T21:52:11.335Z,4.79
2022-10-11T21:54:40.090Z,4.77
2022-10-11T21:57:08.768Z,4.78
2022-10-11T21:59:37.766Z,4.79
2022-10-11T22:02:06.782Z,4.80
2022-10-11T22:04:35.930Z,4.77
2022-10-11T22:07:06.677Z,4.79
2022-10-11T22:09:36.548Z,4.78
2022-10-11T22:12:06.068Z,4.78
2022-10-11T22:14:34.785Z,4.82
2022-10-11T22:17:03.658Z,4.82
2022-10-11T22:19:32.337Z,4.80
2022-10-11T22:22:01.367Z,4.79
2022-10-11T22:24:32.719Z,4.79
2022-10-11T22:27:01.497Z,4.77
2022-10-11T22:29:34.048Z,4.78
2022-10-11T22:32:03.302Z,4.79
2022-10-11T22:34:32.900Z,4.72
2022-10-11T22:37:01.965Z,4.61
2022-10-11T22:39:32.528Z,4.50
2022-10-11T22:42:01.235Z,4.41
2022-10-11T22:44:30.040Z,4.34
2022-10-11T22:46:59.278Z,4.25
2022-10-11T22:49:28.020Z,4.20
2022-10-11T22:51:56.577Z,4.15
2022-10-11T22:54:25.215Z,4.09
2022-10-11T23:21:10.974Z,4.13
2022-10-11T23:23:39.970Z,4.10
2022-10-11T23:26:10.220Z,4.06
2022-10-11T23:28:39.167Z,3.96
2022-10-11T23:31:10.477Z,3.88
2022-10-11T23:33:39.052Z,3.86
2022-10-11T23:36:14.910Z,3.84
2022-10-11T23:38:45.296Z,3.80
2022-10-11T23:41:14.646Z,3.76
2022-10-11T23:43:43.621Z,3.66
2022-10-11T23:46:12.259Z,3.62
2022-10-11T23:48:40.894Z,3.61
2022-10-11T23:51:09.897Z,3.54
2022-10-11T23:53:39.017Z,3.54
2022-10-11T23:56:11.058Z,3.53
2022-10-11T23:58:40.040Z,3.47
